Time;durP1;ratioP1;P1;durP2;ratioP2;P2;SDS_P1;SDS_P2;PMS_P1;PMS_P2;Temp;Humidity;BMP_temperature;BMP_pressure;BME280_temperature;BME280_humidity;BME280_pressure;Samples;Min_cycle;Max_cycle;Signal;HPM_P1;HPM_P2
2023/01/11 00:00:20;;;;;;;1.17;1.10;;;;;;;11.75;57.15;100362.88;678361;29;1137;-80
2023/01/11 00:00:59;;;;;;;1.20;1.10;;;;;;;11.90;56.72;100377.03;677996;29;990;-80
2023/01/11 00:01:20;;;;;;;1.30;1.20;;;;;;;11.86;56.85;100372.63;683138;29;1096;-79
2023/01/11 00:01:41;;;;;;;1.40;1.30;;;;;;;11.83;56.84;100346.44;683178;29;1057;-79
2023/01/11 00:02:01;;;;;;;1.40;1.30;;;;;;;11.95;56.72;100369.28;680417;28;1207;-79
2023/01/11 00:02:22;;;;;;;1.23;1.20;;;;;;;11.96;56.83;100369.31;683249;29;1319;-79
2023/01/11 00:02:44;;;;;;;1.10;1.10;;;;;;;11.96;56.50;100358.84;680625;29;1020;-80
2023/01/11 00:03:06;;;;;;;0.90;0.90;;;;;;;11.99;56.26;100347.56;680566;29;1034;-80
2023/01/11 00:03:27;;;;;;;1.05;0.95;;;;;;;11.91;56.47;100360.50;680645;29;1131;-81
2023/01/11 00:03:48;;;;;;;1.00;0.90;;;;;;;11.91;56.33;100344.81;683141;29;1085;-80
2023/01/11 00:04:08;;;;;;;1.00;0.90;;;;;;;11.90;56.53;100366.59;684025;28;1090;-80
2023/01/11 00:04:29;;;;;;;0.80;0.80;;;;;;;11.95;56.33;100357.09;683236;28;1019;-80
2023/01/11 00:04:49;;;;;;;0.80;0.80;;;;;;;11.98;56.35;100346.66;685740;28;1245;-81
2023/01/11 00:05:10;;;;;;;0.90;0.90;;;;;;;12.04;55.91;100340.69;685985;28;1228;-81
2023/01/11 00:05:35;;;;;;;0.90;0.90;;;;;;;12.01;56.12;100349.34;683234;29;861;-81
2023/01/11 00:05:57;;;;;;;1.48;1.00;;;;;;;11.99;56.25;100351.03;683218;29;1118;-81
2023/01/11 00:06:17;;;;;;;1.80;1.00;;;;;;;12.03;56.13;100333.66;678087;29;1577;-81
2023/01/11 00:06:41;;;;;;;1.60;1.00;;;;;;;12.01;56.20;100353.69;680452;29;1335;-81
2023/01/11 00:07:02;;;;;;;1.00;0.90;;;;;;;11.95;56.54;100374.50;685831;28;1025;-80
2023/01/11 00:07:22;;;;;;;1.03;0.93;;;;;;;11.96;56.32;100347.50;688714;28;748;-80
2023/01/11 00:07:43;;;;;;;1.10;1.00;;;;;;;11.90;56.33;100345.66;688452;28;1389;-79
2023/01/11 00:08:04;;;;;;;1.20;1.10;;;;;;;11.95;56.25;100345.75;685851;28;1034;-79
2023/01/11 00:08:26;;;;;;;1.13;1.00;;;;;;;11.97;56.25;100350.13;683315;28;877;-80
2023/01/11 00:08:46;;;;;;;1.48;1.10;;;;;;;11.92;56.19;100346.56;683165;28;1188;-80
2023/01/11 00:09:07;;;;;;;1.70;1.00;;;;;;;11.93;56.49;100348.34;683037;28;1941;-79
2023/01/11 00:09:27;;;;;;;1.55;1.10;;;;;;;11.99;56.05;100343.19;680660;29;1248;-80
2023/01/11 00:09:49;;;;;;;1.20;1.10;;;;;;;12.01;56.33;100345.84;685728;28;1158;-79
2023/01/11 00:10:10;;;;;;;1.20;1.10;;;;;;;12.04;56.07;100352.00;688549;28;954;-79
2023/01/11 00:10:32;;;;;;;1.08;1.08;;;;;;;12.01;56.01;100357.19;688670;28;807;-79
2023/01/11 00:10:53;;;;;;;1.17;1.10;;;;;;;11.96;56.05;100344.88;688351;28;1241;-80
2023/01/11 00:11:15;;;;;;;1.10;1.00;;;;;;;11.99;56.29;100340.56;688485;28;1212;-80
2023/01/11 00:11:36;;;;;;;0.93;0.93;;;;;;;12.07;56.37;100357.25;691226;28;1036;-80
2023/01/11 00:11:56;;;;;;;1.00;1.00;;;;;;;11.99;56.19;100339.72;688324;28;1324;-80
2023/01/11 00:12:17;;;;;;;1.02;1.02;;;;;;;11.98;55.88;100344.06;683132;28;1055;-79
2023/01/11 00:12:37;;;;;;;1.00;1.00;;;;;;;12.01;56.38;100345.84;683039;28;1064;-79
2023/01/11 00:13:02;;;;;;;0.80;0.80;;;;;;;12.00;56.40;100347.59;685790;28;1197;-80
2023/01/11 00:13:23;;;;;;;0.80;0.70;;;;;;;12.01;56.47;100340.59;686009;28;837;-80
2023/01/11 00:13:44;;;;;;;0.80;0.80;;;;;;;11.97;56.22;100337.06;685831;28;1078;-80
2023/01/11 00:14:04;;;;;;;0.80;0.80;;;;;;;11.98;56.44;100345.81;686721;28;1145;-81
2023/01/11 00:14:25;;;;;;;0.90;0.90;;;;;;;11.95;56.69;100341.41;685101;28;1055;-80
2023/01/11 00:14:46;;;;;;;1.00;0.90;;;;;;;12.00;56.28;100349.31;686645;28;1095;-80
2023/01/11 00:15:07;;;;;;;1.08;0.95;;;;;;;12.02;56.63;100340.66;688650;28;1013;-79
2023/01/11 00:15:28;;;;;;;1.00;0.90;;;;;;;12.02;56.78;100355.44;688551;28;1115;-79
2023/01/11 00:15:49;;;;;;;1.20;0.90;;;;;;;12.00;56.52;100331.91;685749;28;1084;-80
2023/01/11 00:16:10;;;;;;;1.10;0.90;;;;;;;12.12;56.35;100348.63;688459;28;1109;-79
2023/01/11 00:16:31;;;;;;;1.00;0.80;;;;;;;12.16;56.09;100347.81;683307;29;835;-80
2023/01/11 00:16:51;;;;;;;0.85;0.80;;;;;;;12.10;56.33;100351.19;685529;28;1116;-79
2023/01/11 00:17:12;;;;;;;1.10;0.82;;;;;;;12.05;56.36;100343.28;685933;28;1087;-79
2023/01/11 00:17:32;;;;;;;1.20;0.90;;;;;;;11.99;56.30;100329.25;685866;28;1146;-81
2023/01/11 00:17:53;;;;;;;1.25;1.00;;;;;;;11.99;56.02;100332.72;685840;28;1102;-80
2023/01/11 00:18:14;;;;;;;1.30;0.90;;;;;;;11.99;56.20;100331.88;685774;28;1136;-80
2023/01/11 00:18:36;;;;;;;1.20;1.00;;;;;;;12.03;56.67;100333.66;683175;28;1207;-79
2023/01/11 00:18:56;;;;;;;0.95;0.90;;;;;;;12.01;56.17;100331.03;691149;28;1365;-80
2023/01/11 00:19:17;;;;;;;0.90;0.90;;;;;;;12.03;56.36;100334.56;688631;28;1260;-79
2023/01/11 00:19:37;;;;;;;1.00;1.00;;;;;;;12.07;56.26;100341.56;691166;28;1026;-80
2023/01/11 00:19:58;;;;;;;1.10;1.10;;;;;;;12.03;56.12;100331.94;691281;28;1092;-80
2023/01/11 00:20:18;;;;;;;1.10;1.10;;;;;;;12.04;56.35;100335.44;691259;28;1155;-80
2023/01/11 00:20:40;;;;;;;1.00;1.00;;;;;;;12.05;56.07;100331.97;688446;28;1133;-80
2023/01/11 00:21:04;;;;;;;0.85;0.85;;;;;;;12.08;56.44;100352.94;688591;28;1216;-80
2023/01/11 00:21:25;;;;;;;0.90;0.90;;;;;;;12.05;56.45;100353.75;691139;28;1430;-80
2023/01/11 00:21:48;;;;;;;0.85;0.85;;;;;;;12.02;56.40;100331.91;696587;28;1213;-79
2023/01/11 00:22:09;;;;;;;0.93;0.88;;;;;;;12.10;56.03;100326.81;691236;28;1052;-80
2023/01/11 00:22:29;;;;;;;1.02;0.90;;;;;;;12.20;56.40;100349.59;688628;28;748;-79
2023/01/11 00:22:50;;;;;;;1.20;1.00;;;;;;;12.12;56.31;100338.16;690954;28;1169;-80
2023/01/11 00:23:11;;;;;;;1.10;1.00;;;;;;;12.09;56.41;100331.13;688450;28;1100;-79
2023/01/11 00:23:33;;;;;;;1.10;1.00;;;;;;;12.21;56.03;100348.75;685878;28;1147;-80
2023/01/11 00:23:54;;;;;;;1.10;1.00;;;;;;;12.13;56.00;100340.81;688387;28;1016;-80
2023/01/11 00:24:15;;;;;;;1.10;1.00;;;;;;;12.12;55.90;100333.81;685770;28;1161;-80
2023/01/11 00:24:36;;;;;;;1.00;1.00;;;;;;;12.09;55.87;100328.53;688496;28;1396;-80
2023/01/11 00:24:56;;;;;;;0.90;0.90;;;;;;;12.12;55.91;100339.06;685729;28;1271;-80
2023/01/11 00:25:17;;;;;;;0.85;0.85;;;;;;;12.12;56.31;100338.16;685833;28;1203;-80
2023/01/11 00:25:38;;;;;;;1.00;0.90;;;;;;;12.14;56.07;100344.28;688522;28;1014;-80
2023/01/11 00:26:02;;;;;;;1.10;0.93;;;;;;;12.18;56.16;100353.94;688473;28;1188;-80
2023/01/11 00:26:22;;;;;;;1.27;0.90;;;;;;;12.08;55.93;100334.63;688483;28;857;-80
2023/01/11 00:26:43;;;;;;;1.00;0.90;;;;;;;12.07;56.13;100331.09;693753;28;1286;-80
2023/01/11 00:27:03;;;;;;;1.33;1.00;;;;;;;12.22;56.12;100336.56;688330;28;1112;-80
2023/01/11 00:27:24;;;;;;;1.60;1.10;;;;;;;12.09;56.01;100323.28;688170;28;1084;-80
2023/01/11 00:27:46;;;;;;;1.70;1.20;;;;;;;12.10;56.16;100330.28;688513;28;906;-80
2023/01/11 00:28:06;;;;;;;1.40;1.20;;;;;;;12.06;56.32;100318.91;688945;28;1035;-80
2023/01/11 00:28:27;;;;;;;1.30;1.20;;;;;;;12.07;56.09;100319.78;693491;28;1082;-80
2023/01/11 00:28:48;;;;;;;1.07;1.00;;;;;;;12.11;56.43;100336.41;691137;28;1047;-80
2023/01/11 00:29:09;;;;;;;1.30;0.98;;;;;;;12.06;56.40;100334.59;688385;28;1954;-80
2023/01/11 00:29:29;;;;;;;1.77;1.00;;;;;;;12.07;56.18;100325.88;688527;28;1179;-80
2023/01/11 00:29:50;;;;;;;1.80;1.10;;;;;;;12.12;56.16;100332.94;682954;28;1209;-80
2023/01/11 00:30:10;;;;;;;1.37;1.10;;;;;;;12.04;56.57;100322.38;683152;29;1132;-80
2023/01/11 00:30:31;;;;;;;1.20;1.10;;;;;;;12.13;56.36;100330.34;683093;29;1528;-80
2023/01/11 00:30:52;;;;;;;1.20;1.10;;;;;;;12.12;56.29;100333.81;688300;28;1169;-80
2023/01/11 00:31:35;;;;;;;1.20;1.00;;;;;;;12.22;56.34;100352.25;688609;28;942;-80
2023/01/11 00:31:55;;;;;;;0.73;0.70;;;;;;;12.15;56.19;100327.72;688302;28;1378;-80
2023/01/11 00:32:16;;;;;;;0.80;0.70;;;;;;;12.10;56.28;100327.66;688607;28;1092;-80
2023/01/11 00:32:36;;;;;;;0.90;0.80;;;;;;;12.12;55.87;100332.94;688478;28;1030;-80
2023/01/11 00:32:59;;;;;;;1.00;0.90;;;;;;;12.14;55.83;100323.34;689393;28;1033;-80
2023/01/11 00:33:19;;;;;;;0.90;0.90;;;;;;;12.15;56.01;100322.50;693872;28;1173;-80
2023/01/11 00:33:40;;;;;;;1.00;0.90;;;;;;;12.16;55.98;100345.22;696696;28;1128;-80
2023/01/11 00:34:00;;;;;;;0.80;0.80;;;;;;;12.10;56.16;100313.72;693026;28;1199;-80
2023/01/11 00:34:21;;;;;;;0.80;0.80;;;;;;;12.10;56.42;100345.09;691291;28;1048;-80
2023/01/11 00:34:41;;;;;;;0.90;0.90;;;;;;;12.09;56.07;100338.97;691115;28;1078;-81
2023/01/11 00:35:02;;;;;;;1.00;0.90;;;;;;;12.04;56.11;100323.22;683108;29;1033;-80
2023/01/11 00:35:24;;;;;;;1.23;1.00;;;;;;;12.03;56.23;100315.34;683255;29;941;-80
2023/01/11 00:35:44;;;;;;;1.20;1.00;;;;;;;12.08;56.30;100324.16;685810;28;1195;-80
2023/01/11 00:36:05;;;;;;;1.20;1.10;;;;;;;12.04;56.52;100328.47;683020;28;1219;-80
2023/01/11 00:36:26;;;;;;;1.20;1.10;;;;;;;12.07;55.94;100307.56;688493;28;1141;-80
2023/01/11 00:36:46;;;;;;;1.20;1.10;;;;;;;12.14;56.25;100336.44;688120;28;1320;-80
2023/01/11 00:37:08;;;;;;;1.23;1.10;;;;;;;12.04;56.07;100323.22;693852;28;1211;-80
2023/01/11 00:37:29;;;;;;;1.30;1.00;;;;;;;12.09;56.30;100327.66;693989;28;799;-80
2023/01/11 00:37:52;;;;;;;1.27;1.00;;;;;;;12.10;55.92;100318.97;687927;28;1175;-80
2023/01/11 00:38:42;;;;;;;1.17;0.98;;;;;;;11.99;56.02;100296.13;688125;28;1097;-80
2023/01/11 00:38:54;;;;;;;1.90;1.20;;;;;;;12.05;56.00;100314.53;685566;28;1173;-80
2023/01/11 00:39:17;;;;;;;1.95;1.20;;;;;;;12.01;56.20;100331.03;686503;28;1003;-80
2023/01/11 00:39:38;;;;;;;1.50;1.10;;;;;;;12.07;56.18;100330.25;688358;28;921;-80
2023/01/11 00:39:58;;;;;;;1.77;1.10;;;;;;;12.03;56.25;100329.31;688976;28;1151;-80
2023/01/11 00:40:20;;;;;;;1.70;1.00;;;;;;;12.04;56.13;100336.31;691097;28;1287;-80
2023/01/11 00:40:40;;;;;;;1.60;0.90;;;;;;;12.10;56.17;100339.88;687582;28;977;-80
2023/01/11 00:47:55;;;;;;;0.90;0.90;;;;;;;12.12;56.25;100333.81;688265;28;1079;-80
2023/01/11 00:48:12;;;;;;;1.30;1.00;;;;;;;12.12;55.87;100314.63;693112;28;1622;-80
2023/01/11 00:48:33;;;;;;;1.17;1.08;;;;;;;12.05;56.19;100306.69;691165;28;1139;-81
2023/01/11 00:48:54;;;;;;;1.10;1.00;;;;;;;12.09;55.82;100312.84;688361;28;1223;-81
2023/01/11 00:49:14;;;;;;;1.38;1.00;;;;;;;12.05;55.98;100301.44;688408;28;1918;-80
2023/01/11 00:49:35;;;;;;;1.50;1.00;;;;;;;12.08;56.11;100318.94;685809;28;1208;-80
2023/01/11 00:49:56;;;;;;;1.30;1.00;;;;;;;12.02;55.99;100301.41;682668;29;1101;-80
2023/01/11 00:50:16;;;;;;;1.17;1.08;;;;;;;12.19;56.10;100329.53;681263;28;924;-80
2023/01/11 00:50:39;;;;;;;1.40;1.05;;;;;;;12.04;56.14;100302.31;683455;28;1170;-80
2023/01/11 00:51:00;;;;;;;1.33;1.00;;;;;;;12.07;56.14;100304.94;682648;29;1527;-80
2023/01/11 00:51:20;;;;;;;1.02;0.90;;;;;;;12.15;55.77;100301.56;681110;29;1114;-80
2023/01/11 00:51:41;;;;;;;1.40;0.90;;;;;;;12.10;55.98;100303.25;681063;29;1196;-80
2023/01/11 00:52:07;;;;;;;1.30;0.90;;;;;;;12.20;55.75;100323.44;680400;28;1213;-80
2023/01/11 00:52:28;;;;;;;1.25;0.80;;;;;;;12.11;56.06;100300.66;680547;29;882;-81
2023/01/11 00:52:48;;;;;;;0.80;0.80;;;;;;;12.16;55.92;100308.59;680356;29;1137;-80
2023/01/11 00:53:09;;;;;;;0.90;0.90;;;;;;;12.12;55.77;100298.94;683059;28;1206;-80
2023/01/11 00:53:29;;;;;;;0.90;0.90;;;;;;;12.12;55.66;100304.16;683182;29;919;-80
2023/01/11 00:53:51;;;;;;;0.90;0.90;;;;;;;12.12;55.69;100305.06;685595;28;1128;-80
2023/01/11 00:54:12;;;;;;;0.90;0.90;;;;;;;12.15;55.73;100306.81;683456;28;1340;-80
2023/01/11 00:54:32;;;;;;;0.90;0.90;;;;;;;12.19;55.77;100300.78;683488;28;1127;-80
2023/01/11 00:54:53;;;;;;;1.00;0.90;;;;;;;12.20;55.78;100311.25;687912;28;1224;-80
2023/01/11 00:55:13;;;;;;;0.95;0.90;;;;;;;12.20;55.76;100310.38;688276;28;1142;-80
2023/01/11 00:55:35;;;;;;;1.00;1.00;;;;;;;12.16;55.96;100303.34;686195;28;1191;-80
2023/01/11 00:55:55;;;;;;;0.90;0.90;;;;;;;12.22;55.70;100320.88;683026;29;1133;-80
2023/01/11 00:56:16;;;;;;;1.00;1.00;;;;;;;12.19;55.84;100306.00;683498;28;1074;-80
2023/01/11 00:56:48;;;;;;;1.10;1.00;;;;;;;12.19;55.70;100306.00;682367;29;1110;-80
2023/01/11 00:57:09;;;;;;;1.20;1.00;;;;;;;12.16;55.82;100293.75;685703;28;1339;-80
2023/01/11 00:57:30;;;;;;;1.00;0.90;;;;;;;12.20;55.95;100299.91;688428;28;1205;-80
2023/01/11 00:57:50;;;;;;;1.00;0.90;;;;;;;12.17;55.63;100300.75;688237;28;1369;-80
2023/01/11 00:58:11;;;;;;;0.80;0.80;;;;;;;12.18;55.58;100301.63;688351;28;1300;-79
2023/01/11 00:58:31;;;;;;;0.80;0.80;;;;;;;12.26;55.52;100336.63;688527;28;903;-80
2023/01/11 00:58:52;;;;;;;0.80;0.80;;;;;;;12.33;55.60;100309.69;688168;28;1181;-80
2023/01/11 00:59:13;;;;;;;0.90;0.90;;;;;;;12.31;55.38;100310.53;685727;28;1157;-80
2023/01/11 00:59:34;;;;;;;0.90;0.90;;;;;;;12.18;55.46;100301.63;685751;28;1014;-80
2023/01/11 00:59:55;;;;;;;1.00;0.90;;;;;;;12.25;55.67;100299.97;685609;28;1224;-79
2023/01/11 01:00:18;;;;;;;1.00;0.80;;;;;;;12.28;55.47;100313.13;683044;29;1503;-78
2023/01/11 01:00:39;;;;;;;1.05;0.90;;;;;;;12.34;55.40;100306.22;680412;29;1167;-78
2023/01/11 01:01:05;;;;;;;1.00;0.90;;;;;;;12.36;55.27;100306.25;688385;28;1175;-79
2023/01/11 01:01:25;;;;;;;1.00;0.90;;;;;;;12.28;55.09;100308.75;688434;28;912;-78
2023/01/11 01:01:46;;;;;;;0.88;0.88;;;;;;;12.28;55.17;100302.66;691083;28;1091;-79
2023/01/11 01:02:08;;;;;;;0.90;0.90;;;;;;;12.32;55.12;100307.94;685756;28;1230;-79
2023/01/11 01:02:31;;;;;;;0.90;0.90;;;;;;;12.33;55.18;100312.31;685822;28;880;-79
2023/01/11 01:02:51;;;;;;;1.10;1.00;;;;;;;12.38;55.38;100320.22;680259;29;1196;-79
2023/01/11 01:03:12;;;;;;;1.20;1.10;;;;;;;12.32;55.29;100313.16;688393;28;1574;-79
2023/01/11 01:03:33;;;;;;;1.30;1.20;;;;;;;12.33;55.68;100312.31;688234;28;1402;-79
2023/01/11 01:03:54;;;;;;;1.15;1.15;;;;;;;12.26;55.37;100305.22;685667;28;1301;-79
2023/01/11 01:04:14;;;;;;;1.20;1.10;;;;;;;12.26;55.37;100313.06;683151;29;1134;-79
2023/01/11 01:04:41;;;;;;;0.90;0.90;;;;;;;12.30;55.27;100317.47;685481;28;1059;-80
2023/01/11 01:05:20;;;;;;;0.80;0.80;;;;;;;12.28;55.51;100313.97;688487;28;678;-79
2023/01/11 01:05:58;;;;;;;0.95;0.90;;;;;;;12.29;55.34;100312.25;693564;28;1032;-79
2023/01/11 01:06:19;;;;;;;0.90;0.90;;;;;;;12.24;55.18;100312.19;690806;28;1272;-80
2023/01/11 01:06:39;;;;;;;0.80;0.80;;;;;;;12.28;55.61;100324.44;682828;29;1412;-79
2023/01/11 01:07:00;;;;;;;0.80;0.80;;;;;;;12.31;55.32;100314.00;685590;28;1109;-81
2023/01/11 01:07:21;;;;;;;1.20;0.80;;;;;;;12.36;55.32;100331.50;680348;28;1226;-80
2023/01/11 01:07:42;;;;;;;1.85;0.80;;;;;;;12.29;55.40;100293.94;685715;28;1171;-79
2023/01/11 01:08:02;;;;;;;1.90;0.80;;;;;;;12.29;55.21;100309.63;685584;28;1267;-78
2023/01/11 01:08:23;;;;;;;1.60;0.80;;;;;;;12.34;55.43;100314.06;688499;28;875;-80
2023/01/11 01:08:43;;;;;;;1.00;0.90;;;;;;;12.43;55.01;100320.28;685676;28;1171;-79
2023/01/11 01:09:04;;;;;;;1.20;1.00;;;;;;;12.28;55.26;100303.50;682930;28;1254;-80
2023/01/11 01:09:25;;;;;;;0.97;0.97;;;;;;;12.36;55.43;100329.78;688286;28;1906;-78
2023/01/11 01:09:46;;;;;;;1.00;0.90;;;;;;;12.34;55.52;100321.03;688218;28;1188;-78
2023/01/11 01:10:08;;;;;;;0.80;0.80;;;;;;;12.32;55.43;100310.56;688351;28;1353;-79
2023/01/11 01:10:29;;;;;;;0.80;0.80;;;;;;;12.26;55.38;100320.03;688428;28;880;-79
2023/01/11 01:10:51;;;;;;;1.30;0.90;;;;;;;12.28;55.25;100308.75;682803;28;1292;-79
2023/01/11 01:11:11;;;;;;;1.30;0.90;;;;;;;12.28;55.34;100319.19;683169;29;1079;-78
2023/01/11 01:11:32;;;;;;;1.15;0.85;;;;;;;12.28;55.46;100311.34;680442;29;1169;-79
2023/01/11 01:11:53;;;;;;;1.00;0.80;;;;;;;12.24;55.70;100309.56;682938;29;1187;-79
2023/01/11 01:14:24;;;;;;;0.90;0.80;;;;;;;12.23;55.51;100301.69;683006;28;1264;-80
2023/01/11 01:14:27;;;;;;;1.20;0.70;;;;;;;12.32;55.47;100326.25;693159;28;970;-80
2023/01/11 01:14:47;;;;;;;0.70;0.70;;;;;;;12.29;55.58;100318.34;692054;28;1615;-80
2023/01/11 01:15:08;;;;;;;0.70;0.70;;;;;;;12.30;55.42;100314.00;685716;28;1165;-79
2023/01/11 01:15:30;;;;;;;0.70;0.70;;;;;;;12.31;55.53;100324.47;684000;28;903;-79
2023/01/11 01:15:55;;;;;;;0.80;0.80;;;;;;;12.31;55.31;100311.38;685621;28;1120;-79
2023/01/11 01:16:17;;;;;;;0.90;0.90;;;;;;;12.31;55.79;100316.63;688372;28;1208;-79
2023/01/11 01:16:38;;;;;;;0.90;0.90;;;;;;;12.29;55.36;100318.34;685713;28;1825;-78
2023/01/11 01:17:07;;;;;;;0.87;0.87;;;;;;;12.28;55.83;100332.28;685546;28;1081;-79
2023/01/11 01:17:28;;;;;;;0.77;0.70;;;;;;;12.30;55.34;100307.00;683241;29;883;-79
2023/01/11 01:17:52;;;;;;;0.70;0.70;;;;;;;12.31;55.57;100295.69;688427;28;1235;-78
2023/01/11 01:18:12;;;;;;;0.80;0.80;;;;;;;12.29;55.57;100305.25;685714;28;1409;-79
2023/01/11 01:18:33;;;;;;;1.30;0.90;;;;;;;12.32;55.68;100314.91;685747;28;1503;-78
2023/01/11 01:18:56;;;;;;;1.30;0.90;;;;;;;12.30;55.45;100295.69;685720;28;1171;-79
2023/01/11 01:19:16;;;;;;;1.20;0.80;;;;;;;12.33;55.40;100307.06;680381;29;2201;-78
2023/01/11 01:19:37;;;;;;;0.80;0.80;;;;;;;12.26;55.56;100300.00;680511;29;1234;-79
2023/01/11 01:19:58;;;;;;;0.70;0.70;;;;;;;12.32;55.21;100331.47;683115;29;960;-79
2023/01/11 01:20:19;;;;;;;0.80;0.80;;;;;;;12.30;55.38;100312.25;688005;28;1249;-78
2023/01/11 01:20:40;;;;;;;0.80;0.80;;;;;;;12.36;55.43;100327.16;688471;28;1028;-79
2023/01/11 01:21:01;;;;;;;1.00;0.90;;;;;;;12.34;55.33;100307.94;688526;28;1173;-79
2023/01/11 01:21:22;;;;;;;0.90;0.80;;;;;;;12.34;55.61;100308.81;685749;28;1164;-78
2023/01/11 01:21:43;;;;;;;1.30;0.80;;;;;;;12.28;55.78;100298.28;683152;29;1087;-78
2023/01/11 01:22:03;;;;;;;1.00;0.70;;;;;;;12.37;55.54;100304.47;682859;28;1231;-80
2023/01/11 01:22:24;;;;;;;1.10;0.80;;;;;;;12.34;55.76;100303.59;685771;28;954;-78
2023/01/11 01:22:44;;;;;;;0.80;0.80;;;;;;;12.32;55.67;100307.03;685638;28;1267;-78
2023/01/11 01:23:05;;;;;;;1.00;0.90;;;;;;;12.33;55.76;100311.41;685644;28;1012;-79
2023/01/11 01:23:25;;;;;;;1.00;0.90;;;;;;;12.32;55.62;100302.69;685785;28;827;-79
2023/01/11 01:23:46;;;;;;;0.90;0.80;;;;;;;12.31;55.56;100302.69;680226;29;1101;-79
2023/01/11 01:24:07;;;;;;;0.80;0.80;;;;;;;12.28;55.59;100303.50;685504;28;1501;-79
2023/01/11 01:24:29;;;;;;;0.80;0.80;;;;;;;12.37;55.47;100309.72;685707;28;1169;-79
2023/01/11 01:24:50;;;;;;;0.80;0.80;;;;;;;12.37;55.77;100315.84;682826;29;1924;-79
2023/01/11 01:25:11;;;;;;;0.90;0.90;;;;;;;12.36;55.46;100318.44;682647;29;1057;-79
2023/01/11 01:25:31;;;;;;;0.90;0.90;;;;;;;12.28;55.69;100292.19;688392;28;1148;-79
2023/01/11 01:25:52;;;;;;;0.80;0.80;;;;;;;12.30;55.58;100296.53;690845;28;1203;-79
2023/01/11 01:26:12;;;;;;;0.80;0.80;;;;;;;12.32;55.56;100312.28;688362;28;1061;-79
2023/01/11 01:26:33;;;;;;;0.80;0.80;;;;;;;12.34;55.12;100307.94;688769;28;1151;-79
2023/01/11 01:26:54;;;;;;;1.00;0.90;;;;;;;12.46;55.64;100308.09;690979;28;1087;-80
2023/01/11 01:27:16;;;;;;;1.30;0.90;;;;;;;12.36;55.40;100302.72;685763;28;1190;-79
2023/01/11 01:27:38;;;;;;;2.20;0.90;;;;;;;12.40;55.42;100307.16;677667;29;1297;-79
2023/01/11 01:27:58;;;;;;;1.90;0.90;;;;;;;12.51;55.45;100308.16;680224;29;1180;-79
2023/01/11 01:28:20;;;;;;;0.93;0.80;;;;;;;12.41;55.27;100308.91;683064;28;1180;-80
2023/01/11 01:28:41;;;;;;;1.10;0.80;;;;;;;12.33;55.36;100303.56;685758;28;1092;-80
2023/01/11 01:29:03;;;;;;;1.20;0.80;;;;;;;12.34;55.48;100303.59;685510;28;1084;-80
2023/01/11 01:29:24;;;;;;;1.40;0.90;;;;;;;12.37;55.71;100312.34;691083;28;1969;-80
2023/01/11 01:29:45;;;;;;;1.00;0.90;;;;;;;12.32;55.69;100294.84;691010;28;882;-79
2023/01/11 01:30:06;;;;;;;1.10;1.00;;;;;;;12.36;55.59;100315.81;691070;28;1063;-79
2023/01/11 01:30:27;;;;;;;1.30;1.00;;;;;;;12.28;55.82;100303.50;688271;28;913;-80
2023/01/11 01:30:50;;;;;;;1.70;0.90;;;;;;;12.32;55.79;100305.31;688279;28;1096;-80
2023/01/11 01:31:12;;;;;;;1.50;0.80;;;;;;;12.34;55.84;100314.06;684765;28;1068;-79
2023/01/11 01:31:32;;;;;;;0.80;0.80;;;;;;;12.37;55.69;100301.88;683032;29;1215;-79
2023/01/11 01:32:02;;;;;;;1.00;0.90;;;;;;;12.33;55.70;100291.38;682758;28;1455;-80
2023/01/11 01:32:22;;;;;;;0.82;0.82;;;;;;;12.33;55.83;100298.34;686877;28;844;-79
2023/01/11 01:32:43;;;;;;;0.90;0.90;;;;;;;12.35;55.64;100307.06;690568;28;1407;-79
2023/01/11 01:33:03;;;;;;;0.93;0.90;;;;;;;12.33;55.75;100296.59;692378;28;1259;-80
2023/01/11 01:33:24;;;;;;;1.80;1.10;;;;;;;12.32;55.67;100300.09;688408;28;1163;-80
2023/01/11 01:33:45;;;;;;;2.00;1.08;;;;;;;12.35;55.62;100309.69;682808;28;1240;-79
2023/01/11 01:34:05;;;;;;;1.20;0.83;;;;;;;12.31;55.94;100298.31;677668;29;1138;-80
2023/01/11 01:34:26;;;;;;;0.80;0.73;;;;;;;12.30;55.57;100296.53;685625;28;1460;-79
2023/01/11 01:34:47;;;;;;;0.80;0.80;;;;;;;12.36;55.60;100292.25;685639;28;1133;-79
2023/01/11 01:35:08;;;;;;;0.80;0.80;;;;;;;12.34;55.79;100287.91;685126;28;1105;-80
2023/01/11 01:35:28;;;;;;;0.80;0.80;;;;;;;12.32;55.88;100305.31;685670;28;1427;-79
2023/01/11 01:35:49;;;;;;;0.98;0.80;;;;;;;12.32;55.93;100297.47;685399;28;1103;-80
2023/01/11 01:36:10;;;;;;;0.90;0.80;;;;;;;12.30;55.98;100287.84;682962;28;1245;-79
2023/01/11 01:36:58;;;;;;;1.02;0.93;;;;;;;12.41;55.98;100308.91;688346;28;1288;-79
2023/01/11 01:37:19;;;;;;;0.90;0.90;;;;;;;12.31;55.87;100281.75;682535;29;1371;-80
2023/01/11 01:37:39;;;;;;;0.80;0.80;;;;;;;12.34;55.61;100300.97;685667;28;1005;-80
2023/01/11 01:38:00;;;;;;;0.90;0.90;;;;;;;12.33;55.71;100275.69;688084;28;1172;-79
2023/01/11 01:38:20;;;;;;;0.90;0.90;;;;;;;12.27;55.92;100275.59;685518;28;1272;-80
2023/01/11 01:38:41;;;;;;;1.60;0.90;;;;;;;12.33;55.85;100280.91;685538;28;1012;-79
2023/01/11 01:39:03;;;;;;;1.60;0.80;;;;;;;12.44;55.94;100298.47;682870;28;1108;-80
2023/01/11 01:39:24;;;;;;;1.50;0.70;;;;;;;12.34;56.00;100284.38;677753;29;1308;-79
2023/01/11 01:39:45;;;;;;;0.90;0.80;;;;;;;12.34;55.52;100282.66;680205;29;1102;-80
2023/01/11 01:40:06;;;;;;;1.20;0.80;;;;;;;12.37;55.69;100280.94;683071;28;1162;-80
2023/01/11 01:40:27;;;;;;;1.20;0.90;;;;;;;12.41;55.84;100287.97;688433;28;920;-80
2023/01/11 01:40:47;;;;;;;0.98;0.90;;;;;;;12.40;55.86;100286.22;688217;28;1086;-79
2023/01/11 01:41:11;;;;;;;0.90;0.90;;;;;;;12.43;55.88;100281.88;691002;28;968;-79
2023/01/11 01:41:32;;;;;;;0.90;0.90;;;;;;;12.42;55.82;100308.91;685683;28;1193;-79
2023/01/11 01:41:53;;;;;;;0.80;0.80;;;;;;;12.41;55.67;100293.22;685596;28;1064;-79
2023/01/11 01:42:17;;;;;;;0.80;0.80;;;;;;;12.49;55.36;100299.41;685602;28;1131;-80
2023/01/11 01:42:52;;;;;;;0.73;0.70;;;;;;;12.66;55.25;100285.66;690949;28;1937;-80
2023/01/11 01:43:15;;;;;;;0.77;0.70;;;;;;;12.57;55.10;100289.91;690989;28;1090;-80
2023/01/11 01:44:25;;;;;;;0.70;0.70;;;;;;;12.59;55.54;100297.78;685638;28;1973;-79
2023/01/11 01:44:53;;;;;;;1.10;0.90;;;;;;;12.57;55.52;100300.41;683748;28;1353;-80
2023/01/11 01:45:22;;;;;;;0.90;0.80;;;;;;;12.55;55.49;100302.09;688315;28;1170;-79
2023/01/11 01:45:43;;;;;;;0.70;0.70;;;;;;;12.55;55.68;100285.53;688278;28;2127;-79
2023/01/11 01:46:05;;;;;;;0.70;0.70;;;;;;;12.52;55.44;100291.59;688189;28;1195;-79
2023/01/11 01:46:30;;;;;;;0.70;0.70;;;;;;;12.58;55.57;100289.06;688314;28;1071;-79
2023/01/11 01:46:51;;;;;;;0.85;0.80;;;;;;;12.53;55.40;100282.03;682732;28;1109;-80
2023/01/11 01:47:12;;;;;;;1.20;0.80;;;;;;;12.50;55.43;100272.38;685614;28;1168;-79
2023/01/11 01:47:46;;;;;;;1.20;0.70;;;;;;;12.48;55.46;100279.34;683080;29;1050;-79
2023/01/11 01:48:11;;;;;;;0.65;0.65;;;;;;;12.46;55.63;100260.09;685534;28;1122;-80
2023/01/11 01:48:32;;;;;;;0.70;0.70;;;;;;;12.48;55.56;100263.66;691022;28;1219;-79
2023/01/11 01:49:12;;;;;;;0.80;0.80;;;;;;;12.45;55.64;100264.47;690979;28;1075;-79
2023/01/11 01:49:33;;;;;;;0.80;0.80;;;;;;;12.47;55.36;100267.09;688297;28;1033;-80
2023/01/11 01:49:55;;;;;;;0.80;0.80;;;;;;;12.46;55.70;100263.63;688218;28;1004;-80
2023/01/11 01:50:47;;;;;;;1.08;0.90;;;;;;;12.53;55.42;100271.56;688278;28;1160;-80
2023/01/11 01:51:12;;;;;;;1.13;0.80;;;;;;;12.50;55.55;100261.03;687421;28;1372;-79
2023/01/11 01:51:49;;;;;;;1.10;0.70;;;;;;;12.57;55.47;100268.97;693557;28;1157;-80
2023/01/11 01:52:10;;;;;;;1.10;0.80;;;;;;;12.55;55.69;100281.16;692722;28;969;-80
2023/01/11 01:52:33;;;;;;;1.00;0.90;;;;;;;12.57;55.38;100271.59;690929;28;1353;-80
2023/01/11 01:52:59;;;;;;;1.00;0.90;;;;;;;12.57;55.42;100263.75;688104;28;1347;-79
2023/01/11 01:53:30;;;;;;;0.80;0.70;;;;;;;12.53;55.16;100267.19;685507;28;1107;-80
2023/01/11 01:53:55;;;;;;;1.00;0.90;;;;;;;12.56;55.42;100264.63;682670;29;982;-80
2023/01/11 01:54:21;;;;;;;1.00;0.80;;;;;;;12.63;55.35;100269.91;685649;28;1105;-80
2023/01/11 01:54:45;;;;;;;1.02;0.70;;;;;;;12.55;55.30;100265.44;682865;29;1142;-79
2023/01/11 01:55:10;;;;;;;1.10;0.70;;;;;;;12.56;55.38;100262.00;685529;28;1005;-79
2023/01/11 01:55:37;;;;;;;0.73;0.70;;;;;;;12.56;55.19;100267.22;680398;29;868;-79